Time;durP1;ratioP1;P1;durP2;ratioP2;P2;SDS_P1;SDS_P2;PMS_P1;PMS_P2;Temp;Humidity;BMP_temperature;BMP_pressure;BME280_temperature;BME280_humidity;BME280_pressure;Samples;Min_cycle;Max_cycle;Signal;HPM_P1;HPM_P2
2022/03/27 00:01:20;;;;;;;44.05;23.70;;;;;;;;;;4992974;28;20041;-71
2022/03/27 00:03:46;;;;;;;47.95;25.52;;;;;;;;;;4996495;28;20032;-70
2022/03/27 00:06:12;;;;;;;45.20;24.83;;;;;;;;;;4994157;28;20061;-70
2022/03/27 00:08:38;;;;;;;47.95;25.17;;;;;;;;;;5012811;28;20502;-70
2022/03/27 00:13:49;;;;;;;42.70;25.20;;;;;;;;;;4997191;28;20133;-70
2022/03/27 00:16:15;;;;;;;44.80;23.63;;;;;;;;;;5000088;28;20112;-70
2022/03/27 00:18:41;;;;;;;43.55;23.05;;;;;;;;;;4995750;28;20040;-70
2022/03/27 00:21:08;;;;;;;48.38;25.15;;;;;;;;;;4998957;28;20041;-69
2022/03/27 00:23:34;;;;;;;46.25;24.25;;;;;;;;;;5003419;28;20595;-70
2022/03/27 00:26:00;;;;;;;49.60;22.85;;;;;;;;;;5001715;28;20033;-69
2022/03/27 00:28:31;;;;;;;44.58;26.60;;;;;;;;;;4999516;28;20026;-70
2022/03/27 00:30:59;;;;;;;45.85;24.33;;;;;;;;;;5017595;28;20388;-68
2022/03/27 00:33:25;;;;;;;50.25;25.40;;;;;;;;;;5003702;28;20034;-70
2022/03/27 00:35:51;;;;;;;44.40;23.30;;;;;;;;;;4995064;28;20539;-69
2022/03/27 00:38:17;;;;;;;41.92;23.25;;;;;;;;;;4993721;28;20042;-69
2022/03/27 00:40:43;;;;;;;38.80;20.67;;;;;;;;;;4999927;28;20102;-70
2022/03/27 00:43:09;;;;;;;46.30;23.33;;;;;;;;;;5001974;28;20022;-70
2022/03/27 00:45:35;;;;;;;40.10;21.15;;;;;;;;;;4996618;28;20788;-71
2022/03/27 00:48:02;;;;;;;43.15;22.42;;;;;;;;;;5000291;28;20048;-70
2022/03/27 00:50:30;;;;;;;38.22;21.33;;;;;;;;;;4993966;28;20034;-69
2022/03/27 00:52:57;;;;;;;42.30;21.58;;;;;;;;;;5003553;28;20026;-69
2022/03/27 00:55:23;;;;;;;39.15;22.35;;;;;;;;;;4998191;28;20867;-70
2022/03/27 00:57:49;;;;;;;36.10;20.10;;;;;;;;;;5016576;28;20034;-69
2022/03/27 01:00:34;;;;;;;42.75;21.75;;;;;;;;;;4998917;28;20035;-69
2022/03/27 01:03:00;;;;;;;42.55;21.25;;;;;;;;;;4997455;28;20492;-71
2022/03/27 01:05:28;;;;;;;46.95;23.30;;;;;;;;;;5005570;28;20056;-72
2022/03/27 01:07:54;;;;;;;42.45;22.63;;;;;;;;;;5000829;28;20041;-70
2022/03/27 01:10:23;;;;;;;40.70;21.38;;;;;;;;;;5003583;28;20109;-70
2022/03/27 01:12:49;;;;;;;42.35;21.05;;;;;;;;;;4995692;28;20030;-70
2022/03/27 01:15:26;;;;;;;41.67;23.38;;;;;;;;;;5010507;28;20510;-71
2022/03/27 01:17:52;;;;;;;45.83;24.65;;;;;;;;;;5010688;28;20543;-69
2022/03/27 01:20:44;;;;;;;41.70;22.13;;;;;;;;;;5001049;28;20033;-68
2022/03/27 01:23:11;;;;;;;40.95;21.15;;;;;;;;;;5006873;28;20029;-70
2022/03/27 01:25:39;;;;;;;43.47;21.95;;;;;;;;;;5001842;28;20031;-69
2022/03/27 01:28:05;;;;;;;43.38;22.88;;;;;;;;;;4992973;28;20495;-70
2022/03/27 01:30:32;;;;;;;39.78;22.23;;;;;;;;;;4997114;28;20069;-71
2022/03/27 01:32:58;;;;;;;42.10;21.75;;;;;;;;;;5000847;28;20049;-70
2022/03/27 01:35:25;;;;;;;44.33;22.63;;;;;;;;;;4995314;28;20092;-70
2022/03/27 01:37:51;;;;;;;37.58;22.55;;;;;;;;;;4996504;28;20034;-69
2022/03/27 01:40:18;;;;;;;36.38;21.05;;;;;;;;;;5000927;28;20087;-69
2022/03/27 01:42:44;;;;;;;36.00;20.65;;;;;;;;;;4997320;28;20034;-71
2022/03/27 01:45:11;;;;;;;41.13;20.55;;;;;;;;;;4995112;28;20037;-70
2022/03/27 01:47:37;;;;;;;43.22;21.95;;;;;;;;;;5007577;28;20709;-69
2022/03/27 01:50:05;;;;;;;44.15;22.65;;;;;;;;;;5003774;28;20041;-70
2022/03/27 01:52:31;;;;;;;41.92;23.58;;;;;;;;;;5019233;28;20026;-70
2022/03/27 01:54:57;;;;;;;44.00;22.48;;;;;;;;;;4998438;28;20076;-71
2022/03/27 01:57:23;;;;;;;44.05;22.42;;;;;;;;;;5005297;28;20066;-70
2022/03/27 01:59:50;;;;;;;40.88;22.10;;;;;;;;;;5010014;28;20030;-70
2022/03/27 02:02:23;;;;;;;34.78;20.27;;;;;;;;;;5004032;28;20022;-69
2022/03/27 02:04:50;;;;;;;40.20;21.92;;;;;;;;;;5004044;28;20057;-70
2022/03/27 02:07:17;;;;;;;37.05;20.75;;;;;;;;;;5008928;28;20084;-70
2022/03/27 02:09:43;;;;;;;33.70;20.92;;;;;;;;;;5004823;28;20029;-70
2022/03/27 02:12:09;;;;;;;43.55;21.85;;;;;;;;;;5006878;28;20030;-69
2022/03/27 02:14:35;;;;;;;37.00;20.33;;;;;;;;;;5014001;28;20072;-70
2022/03/27 02:17:01;;;;;;;40.05;21.83;;;;;;;;;;5012587;28;20133;-70
2022/03/27 02:19:27;;;;;;;43.53;22.50;;;;;;;;;;4998315;28;20054;-71
2022/03/27 02:21:54;;;;;;;39.10;20.95;;;;;;;;;;5010802;28;21478;-71
2022/03/27 02:24:20;;;;;;;37.13;21.17;;;;;;;;;;4998392;28;20033;-71
2022/03/27 02:26:47;;;;;;;34.03;20.90;;;;;;;;;;5004195;28;20771;-70
2022/03/27 02:29:17;;;;;;;40.85;20.08;;;;;;;;;;4995034;28;20543;-70
2022/03/27 02:31:44;;;;;;;38.28;20.83;;;;;;;;;;5005066;28;20083;-71
2022/03/27 02:34:10;;;;;;;42.72;21.65;;;;;;;;;;5002195;28;20541;-70
2022/03/27 02:36:36;;;;;;;35.95;19.80;;;;;;;;;;5006943;28;20026;-69
2022/03/27 02:39:02;;;;;;;41.08;21.00;;;;;;;;;;5004846;28;20026;-71
2022/03/27 02:41:29;;;;;;;40.00;21.23;;;;;;;;;;4998326;28;20026;-71
2022/03/27 02:43:55;;;;;;;36.95;20.60;;;;;;;;;;5002158;28;20479;-71
2022/03/27 02:46:21;;;;;;;38.00;20.02;;;;;;;;;;5002971;28;20031;-69
2022/03/27 02:48:47;;;;;;;41.10;20.92;;;;;;;;;;5006983;28;20036;-70
2022/03/27 02:51:13;;;;;;;34.88;20.42;;;;;;;;;;5014234;28;20052;-70
2022/03/27 02:53:39;;;;;;;42.13;21.85;;;;;;;;;;5005198;28;20610;-69
2022/03/27 02:56:06;;;;;;;41.05;21.58;;;;;;;;;;5009695;28;20053;-70
2022/03/27 02:58:33;;;;;;;35.92;20.48;;;;;;;;;;5004820;28;20773;-70
2022/03/27 03:00:59;;;;;;;37.05;21.08;;;;;;;;;;5009801;28;20104;-70
2022/03/27 03:03:25;;;;;;;42.58;21.98;;;;;;;;;;5011556;28;20037;-70
2022/03/27 03:05:51;;;;;;;36.60;21.17;;;;;;;;;;5007257;28;20030;-70
2022/03/27 03:08:18;;;;;;;36.08;20.08;;;;;;;;;;5004975;28;20042;-70
2022/03/27 03:10:45;;;;;;;35.08;21.88;;;;;;;;;;5004972;28;20570;-70
2022/03/27 03:13:11;;;;;;;43.10;22.25;;;;;;;;;;5007179;28;20034;-70
2022/03/27 03:15:38;;;;;;;42.83;23.08;;;;;;;;;;5008614;28;20052;-69
2022/03/27 03:18:05;;;;;;;35.72;21.42;;;;;;;;;;5009785;28;20045;-69
2022/03/27 03:20:31;;;;;;;47.47;23.17;;;;;;;;;;5002820;28;20060;-71
2022/03/27 03:22:57;;;;;;;40.42;21.70;;;;;;;;;;5006717;28;20040;-70
2022/03/27 03:25:24;;;;;;;39.33;21.20;;;;;;;;;;5000435;28;20483;-71
2022/03/27 03:27:50;;;;;;;41.42;21.67;;;;;;;;;;5004535;28;20101;-70
2022/03/27 03:30:17;;;;;;;41.17;21.90;;;;;;;;;;5001320;28;20026;-68
2022/03/27 03:32:43;;;;;;;41.90;21.75;;;;;;;;;;5000296;28;20554;-70
2022/03/27 03:35:10;;;;;;;40.72;21.67;;;;;;;;;;4997462;28;20118;-69
2022/03/27 03:37:36;;;;;;;43.42;23.25;;;;;;;;;;5002570;28;20034;-70
2022/03/27 03:40:03;;;;;;;38.45;23.17;;;;;;;;;;5003237;28;20022;-69
2022/03/27 03:42:29;;;;;;;42.58;23.58;;;;;;;;;;5006380;28;20053;-70
2022/03/27 03:44:56;;;;;;;41.78;22.25;;;;;;;;;;5008688;28;20382;-70
2022/03/27 03:47:22;;;;;;;37.85;21.83;;;;;;;;;;5006947;28;20034;-70
2022/03/27 03:49:48;;;;;;;45.53;23.65;;;;;;;;;;4997698;28;20097;-70
2022/03/27 03:52:14;;;;;;;49.53;22.15;;;;;;;;;;5002557;28;20033;-69
2022/03/27 03:54:40;;;;;;;37.08;20.60;;;;;;;;;;5006757;28;20026;-71
2022/03/27 03:57:06;;;;;;;40.03;21.27;;;;;;;;;;5003226;28;20132;-70
2022/03/27 03:59:33;;;;;;;40.20;21.08;;;;;;;;;;5002041;28;20029;-69
2022/03/27 04:01:59;;;;;;;33.65;20.75;;;;;;;;;;5007539;28;20065;-70
2022/03/27 04:04:25;;;;;;;37.80;21.00;;;;;;;;;;5004722;28;20056;-70
2022/03/27 04:06:52;;;;;;;43.85;20.67;;;;;;;;;;5004474;28;20026;-70
2022/03/27 04:09:20;;;;;;;35.38;21.27;;;;;;;;;;5001914;28;20026;-70
2022/03/27 04:11:47;;;;;;;38.25;20.88;;;;;;;;;;5000038;28;20032;-69
2022/03/27 04:14:13;;;;;;;38.97;21.90;;;;;;;;;;5008758;28;20034;-70
2022/03/27 04:16:39;;;;;;;39.03;22.00;;;;;;;;;;5000085;28;20057;-71
2022/03/27 04:19:05;;;;;;;37.97;22.58;;;;;;;;;;5007271;28;20013;-71
2022/03/27 04:21:32;;;;;;;40.40;20.88;;;;;;;;;;5005485;28;20034;-71
2022/03/27 04:23:58;;;;;;;39.38;20.60;;;;;;;;;;5001234;28;20057;-70
2022/03/27 04:26:24;;;;;;;41.03;21.33;;;;;;;;;;5004961;28;20112;-70
2022/03/27 04:28:50;;;;;;;37.97;19.63;;;;;;;;;;4995728;28;20448;-70
2022/03/27 04:31:18;;;;;;;38.42;20.08;;;;;;;;;;5004299;28;20105;-70
2022/03/27 04:33:44;;;;;;;35.40;20.48;;;;;;;;;;5003700;28;20058;-70
2022/03/27 04:36:10;;;;;;;36.83;20.67;;;;;;;;;;5000664;28;20026;-69
2022/03/27 04:38:36;;;;;;;34.05;20.40;;;;;;;;;;4992288;28;20033;-71
2022/03/27 04:41:03;;;;;;;38.42;19.15;;;;;;;;;;4999382;28;20034;-70
2022/03/27 04:43:29;;;;;;;31.13;19.17;;;;;;;;;;5000536;28;20022;-69
2022/03/27 04:45:55;;;;;;;34.65;20.30;;;;;;;;;;4999474;28;20030;-70
2022/03/27 04:48:21;;;;;;;34.00;19.95;;;;;;;;;;5015896;28;20034;-70
2022/03/27 04:50:48;;;;;;;34.40;17.83;;;;;;;;;;5001780;28;20038;-71
2022/03/27 04:53:14;;;;;;;33.20;18.00;;;;;;;;;;5004354;28;20026;-68
2022/03/27 04:55:40;;;;;;;30.85;18.98;;;;;;;;;;5005697;28;20040;-70
2022/03/27 04:58:10;;;;;;;30.17;19.67;;;;;;;;;;4999596;28;20379;-71
2022/03/27 05:00:37;;;;;;;37.40;19.63;;;;;;;;;;5008080;28;20037;-71
2022/03/27 05:03:03;;;;;;;33.20;18.30;;;;;;;;;;5000659;28;20023;-71
2022/03/27 05:05:30;;;;;;;33.83;18.75;;;;;;;;;;5002864;28;20029;-71
2022/03/27 05:07:58;;;;;;;34.30;19.60;;;;;;;;;;5005376;28;20022;-71
2022/03/27 05:10:24;;;;;;;35.05;19.33;;;;;;;;;;5011786;28;20026;-69
2022/03/27 05:12:50;;;;;;;33.38;17.42;;;;;;;;;;5001413;28;20027;-70
2022/03/27 05:15:16;;;;;;;33.83;19.98;;;;;;;;;;5008537;28;20124;-70
2022/03/27 05:17:49;;;;;;;34.13;19.08;;;;;;;;;;4999827;28;20400;-69
2022/03/27 05:20:15;;;;;;;36.13;19.35;;;;;;;;;;5004568;28;20026;-68
2022/03/27 05:22:42;;;;;;;35.55;17.75;;;;;;;;;;4998299;28;20080;-70
2022/03/27 05:25:09;;;;;;;34.05;18.00;;;;;;;;;;5012287;28;20026;-69
2022/03/27 05:27:41;;;;;;;38.45;19.90;;;;;;;;;;5005452;28;20037;-70
2022/03/27 05:30:08;;;;;;;32.78;18.58;;;;;;;;;;5006688;28;20037;-70
2022/03/27 05:32:34;;;;;;;33.97;19.45;;;;;;;;;;5001736;28;20034;-71
2022/03/27 05:35:01;;;;;;;31.83;17.98;;;;;;;;;;5012301;28;20487;-71
2022/03/27 05:37:27;;;;;;;34.80;20.02;;;;;;;;;;5005697;28;20034;-69
2022/03/27 05:39:53;;;;;;;27.88;18.40;;;;;;;;;;5001140;28;20112;-71
2022/03/27 05:42:19;;;;;;;36.03;18.35;;;;;;;;;;5009160;28;20507;-71
2022/03/27 05:44:45;;;;;;;36.85;18.40;;;;;;;;;;5018689;28;20056;-71
2022/03/27 05:47:11;;;;;;;40.00;20.95;;;;;;;;;;5003530;28;20022;-68
2022/03/27 05:49:37;;;;;;;37.35;20.70;;;;;;;;;;5002405;28;20129;-71
2022/03/27 05:52:03;;;;;;;38.72;20.30;;;;;;;;;;5003524;28;20026;-70
2022/03/27 05:54:29;;;;;;;35.33;20.67;;;;;;;;;;5000324;28;20484;-70
2022/03/27 05:56:55;;;;;;;37.17;19.42;;;;;;;;;;4998138;28;20368;-72
2022/03/27 05:59:22;;;;;;;34.35;20.50;;;;;;;;;;5001268;28;20034;-72
2022/03/27 06:01:49;;;;;;;40.42;21.40;;;;;;;;;;5009328;28;20037;-71
2022/03/27 06:04:15;;;;;;;35.58;21.25;;;;;;;;;;5013298;28;20022;-72
2022/03/27 06:06:42;;;;;;;39.25;21.90;;;;;;;;;;5005298;28;20476;-72
2022/03/27 06:09:08;;;;;;;43.30;21.55;;;;;;;;;;5002338;28;20038;-70
2022/03/27 06:11:35;;;;;;;40.83;20.98;;;;;;;;;;5008622;28;20026;-71
2022/03/27 06:14:02;;;;;;;36.15;21.52;;;;;;;;;;5004604;28;20058;-70
2022/03/27 06:16:28;;;;;;;39.08;20.58;;;;;;;;;;5010259;28;20032;-72
2022/03/27 06:18:55;;;;;;;45.90;21.63;;;;;;;;;;5021886;28;20524;-72
2022/03/27 06:21:21;;;;;;;42.60;22.38;;;;;;;;;;5003188;28;20109;-72
2022/03/27 06:23:49;;;;;;;43.42;21.67;;;;;;;;;;5007249;28;20396;-71
2022/03/27 06:26:16;;;;;;;44.90;22.60;;;;;;;;;;5002216;28;20565;-71
2022/03/27 06:28:42;;;;;;;42.40;22.65;;;;;;;;;;5005173;28;20073;-72
2022/03/27 06:31:08;;;;;;;41.20;23.30;;;;;;;;;;5005277;28;20032;-71
2022/03/27 06:33:35;;;;;;;40.20;21.77;;;;;;;;;;5009364;28;20439;-70
2022/03/27 06:36:01;;;;;;;40.67;22.50;;;;;;;;;;5006747;28;20045;-71
2022/03/27 06:38:31;;;;;;;39.42;23.35;;;;;;;;;;5001092;28;20029;-71
2022/03/27 06:40:57;;;;;;;41.58;22.70;;;;;;;;;;5006626;28;20050;-70
2022/03/27 06:43:24;;;;;;;41.80;24.42;;;;;;;;;;5009039;28;20064;-70
2022/03/27 06:45:51;;;;;;;42.38;23.52;;;;;;;;;;5010363;28;20022;-72
2022/03/27 06:48:18;;;;;;;40.25;21.27;;;;;;;;;;5011952;28;20057;-71
2022/03/27 06:50:45;;;;;;;41.08;24.25;;;;;;;;;;5017452;28;20025;-70
2022/03/27 06:53:14;;;;;;;42.10;23.65;;;;;;;;;;5014885;28;20101;-70
2022/03/27 06:55:41;;;;;;;43.50;21.88;;;;;;;;;;5010484;28;20052;-71
2022/03/27 06:58:08;;;;;;;40.13;21.45;;;;;;;;;;5014794;28;20026;-72
2022/03/27 07:03:20;;;;;;;39.40;21.75;;;;;;;;;;5015927;28;20095;-72
2022/03/27 07:05:47;;;;;;;38.65;21.75;;;;;;;;;;5016712;28;20473;-74
2022/03/27 07:08:14;;;;;;;38.08;19.13;;;;;;;;;;5013231;28;20056;-71
2022/03/27 07:10:42;;;;;;;35.83;20.42;;;;;;;;;;5010862;28;20021;-71
2022/03/27 07:13:10;;;;;;;38.10;20.40;;;;;;;;;;5010913;28;20026;-72
2022/03/27 07:15:38;;;;;;;36.75;19.42;;;;;;;;;;5011082;28;20522;-71
2022/03/27 07:18:06;;;;;;;35.13;19.60;;;;;;;;;;5010098;28;20412;-72
2022/03/27 07:20:35;;;;;;;34.20;18.70;;;;;;;;;;5012056;28;20456;-73
2022/03/27 07:23:04;;;;;;;38.80;19.92;;;;;;;;;;5006790;28;20037;-70
2022/03/27 07:25:34;;;;;;;33.70;19.65;;;;;;;;;;5012320;28;20025;-71
2022/03/27 07:28:04;;;;;;;37.92;20.13;;;;;;;;;;5011303;28;20045;-70
2022/03/27 07:30:31;;;;;;;36.15;21.33;;;;;;;;;;5011566;28;20072;-72
2022/03/27 07:32:57;;;;;;;36.88;19.73;;;;;;;;;;5010705;28;20515;-72
2022/03/27 07:35:26;;;;;;;37.10;20.92;;;;;;;;;;5008237;28;20038;-72
2022/03/27 07:37:53;;;;;;;38.20;20.52;;;;;;;;;;5009817;28;20022;-71
2022/03/27 07:40:20;;;;;;;37.85;21.08;;;;;;;;;;5008202;28;20026;-72
2022/03/27 07:42:49;;;;;;;39.38;21.05;;;;;;;;;;5007615;28;20029;-71
2022/03/27 07:45:18;;;;;;;34.53;19.88;;;;;;;;;;4999006;28;20549;-71
2022/03/27 07:47:46;;;;;;;38.88;21.85;;;;;;;;;;5026162;28;20092;-72
2022/03/27 07:50:12;;;;;;;39.65;20.55;;;;;;;;;;5009911;28;20030;-72
2022/03/27 07:52:40;;;;;;;32.88;19.60;;;;;;;;;;5015362;28;20061;-73
2022/03/27 07:55:08;;;;;;;37.17;21.42;;;;;;;;;;5011247;28;20077;-72
2022/03/27 07:57:34;;;;;;;35.30;20.17;;;;;;;;;;5012768;28;20100;-70
2022/03/27 08:00:02;;;;;;;34.53;18.98;;;;;;;;;;5012669;28;20044;-71
2022/03/27 08:02:28;;;;;;;39.20;20.75;;;;;;;;;;5014536;28;20100;-71
2022/03/27 08:04:55;;;;;;;34.10;20.88;;;;;;;;;;5013546;28;20022;-72
2022/03/27 08:07:22;;;;;;;33.95;20.73;;;;;;;;;;5012592;28;20095;-74
2022/03/27 08:09:48;;;;;;;38.63;20.67;;;;;;;;;;5005319;28;20053;-71
2022/03/27 08:12:15;;;;;;;38.30;19.27;;;;;;;;;;5009927;28;20072;-71
2022/03/27 08:14:43;;;;;;;32.65;19.85;;;;;;;;;;5007579;28;20050;-72
2022/03/27 08:17:10;;;;;;;36.00;20.85;;;;;;;;;;5008028;28;20108;-71
2022/03/27 08:19:37;;;;;;;34.92;19.48;;;;;;;;;;5005267;28;20032;-72
2022/03/27 08:22:03;;;;;;;38.60;21.17;;;;;;;;;;5009204;28;20026;-72
2022/03/27 08:24:33;;;;;;;33.60;19.50;;;;;;;;;;5007604;28;20040;-72
2022/03/27 08:27:00;;;;;;;38.70;21.33;;;;;;;;;;5004160;28;20045;-72
2022/03/27 08:29:29;;;;;;;38.50;20.70;;;;;;;;;;5008205;28;20030;-72
2022/03/27 08:31:56;;;;;;;38.80;20.23;;;;;;;;;;5008583;28;20098;-72
2022/03/27 08:34:26;;;;;;;36.67;20.40;;;;;;;;;;5006069;28;20034;-71
2022/03/27 08:36:52;;;;;;;37.28;20.15;;;;;;;;;;5005460;28;20029;-71
2022/03/27 08:39:19;;;;;;;36.25;21.05;;;;;;;;;;5004071;28;20388;-71
2022/03/27 08:41:47;;;;;;;31.73;20.08;;;;;;;;;;5005851;28;20432;-72
2022/03/27 08:44:14;;;;;;;39.33;20.13;;;;;;;;;;5006944;28;20045;-72
2022/03/27 08:46:42;;;;;;;37.13;21.20;;;;;;;;;;5008044;28;20029;-72
2022/03/27 08:49:11;;;;;;;36.92;22.98;;;;;;;;;;5005229;28;20034;-72
2022/03/27 08:51:42;;;;;;;37.75;22.48;;;;;;;;;;5005002;28;20076;-73
2022/03/27 08:54:13;;;;;;;37.47;22.10;;;;;;;;;;5004593;28;20140;-72
2022/03/27 08:56:40;;;;;;;40.30;22.20;;;;;;;;;;5006709;28;20053;-71
2022/03/27 08:59:08;;;;;;;36.33;21.75;;;;;;;;;;5010437;28;20081;-72
2022/03/27 09:01:35;;;;;;;35.50;21.75;;;;;;;;;;5007088;28;20026;-72
2022/03/27 09:04:02;;;;;;;35.35;20.38;;;;;;;;;;5011391;28;20471;-75
2022/03/27 09:06:28;;;;;;;37.92;20.50;;;;;;;;;;5006965;28;20495;-73
2022/03/27 09:08:55;;;;;;;38.75;22.77;;;;;;;;;;5008243;28;20041;-72
2022/03/27 09:11:23;;;;;;;38.15;22.02;;;;;;;;;;5008504;28;20072;-71
2022/03/27 09:13:52;;;;;;;34.40;21.73;;;;;;;;;;5004135;28;20042;-73
2022/03/27 09:16:19;;;;;;;37.95;21.55;;;;;;;;;;5003499;28;20034;-72
2022/03/27 09:18:51;;;;;;;40.22;20.95;;;;;;;;;;5011593;28;20061;-73
2022/03/27 09:21:19;;;;;;;34.35;21.25;;;;;;;;;;5002949;28;20072;-71
2022/03/27 09:23:51;;;;;;;34.33;22.08;;;;;;;;;;5007587;28;20033;-73
2022/03/27 09:26:17;;;;;;;33.90;20.00;;;;;;;;;;5002212;28;20045;-69
2022/03/27 09:28:45;;;;;;;33.15;19.90;;;;;;;;;;5007136;28;20104;-71
2022/03/27 09:31:19;;;;;;;35.53;20.42;;;;;;;;;;5005743;28;20056;-72
2022/03/27 09:33:50;;;;;;;35.67;21.00;;;;;;;;;;5005379;28;20472;-73
2022/03/27 09:36:18;;;;;;;32.05;19.05;;;;;;;;;;5005768;28;20033;-72
2022/03/27 09:39:02;;;;;;;31.20;19.50;;;;;;;;;;5005345;28;20065;-73
2022/03/27 09:41:48;;;;;;;31.13;19.08;;;;;;;;;;5005147;28;20030;-71
2022/03/27 09:44:17;;;;;;;30.55;17.92;;;;;;;;;;5006345;28;20543;-72
2022/03/27 09:46:47;;;;;;;32.42;19.83;;;;;;;;;;5006873;28;20030;-70
2022/03/27 09:49:14;;;;;;;31.75;19.00;;;;;;;;;;5003977;28;20037;-72
2022/03/27 09:52:13;;;;;;;35.67;19.27;;;;;;;;;;5001937;28;20092;-72
2022/03/27 09:54:46;;;;;;;31.95;19.35;;;;;;;;;;5006660;28;20044;-72
2022/03/27 09:57:26;;;;;;;28.60;18.65;;;;;;;;;;5008237;28;20504;-73
2022/03/27 09:59:53;;;;;;;29.38;18.63;;;;;;;;;;5007608;28;20068;-73
2022/03/27 10:02:23;;;;;;;27.48;17.15;;;;;;;;;;5007338;28;20045;-72
2022/03/27 10:04:53;;;;;;;33.03;18.58;;;;;;;;;;4998913;28;20135;-72
2022/03/27 10:07:22;;;;;;;33.78;19.60;;;;;;;;;;5002648;28;20030;-73
2022/03/27 10:09:51;;;;;;;27.67;17.50;;;;;;;;;;5007112;28;20506;-73
2022/03/27 10:12:18;;;;;;;34.78;19.35;;;;;;;;;;5004425;28;20809;-72
2022/03/27 10:14:45;;;;;;;31.60;18.67;;;;;;;;;;5004439;28;20520;-72
2022/03/27 10:17:11;;;;;;;30.90;19.63;;;;;;;;;;5005770;28;20030;-72
2022/03/27 10:20:01;;;;;;;33.10;19.33;;;;;;;;;;5006564;28;20093;-73
2022/03/27 10:22:29;;;;;;;31.63;19.65;;;;;;;;;;5006113;28;20052;-73
2022/03/27 10:24:57;;;;;;;31.35;20.48;;;;;;;;;;5011614;28;20040;-73
2022/03/27 10:27:24;;;;;;;27.17;18.73;;;;;;;;;;5011515;28;20030;-73
2022/03/27 10:29:51;;;;;;;27.25;16.40;;;;;;;;;;5015026;28;20574;-73
2022/03/27 10:32:18;;;;;;;26.55;18.15;;;;;;;;;;5007676;28;20395;-72
2022/03/27 10:34:55;;;;;;;29.55;17.75;;;;;;;;;;5006022;28;20088;-73
2022/03/27 10:37:33;;;;;;;20.95;14.20;;;;;;;;;;5009101;28;20056;-73
2022/03/27 10:40:27;;;;;;;25.48;16.55;;;;;;;;;;5018971;28;20025;-72
2022/03/27 10:43:01;;;;;;;18.83;13.80;;;;;;;;;;5004494;28;20491;-73
2022/03/27 10:45:30;;;;;;;23.55;13.55;;;;;;;;;;5009127;28;20472;-73
2022/03/27 10:48:12;;;;;;;20.95;13.35;;;;;;;;;;5010526;28;20049;-72
2022/03/27 10:50:55;;;;;;;21.08;13.35;;;;;;;;;;5009507;28;20027;-72
2022/03/27 10:53:23;;;;;;;19.20;12.43;;;;;;;;;;5015012;28;20077;-72
2022/03/27 10:55:51;;;;;;;17.10;11.57;;;;;;;;;;5010672;28;20053;-71
2022/03/27 10:58:31;;;;;;;15.98;10.02;;;;;;;;;;5001986;28;20061;-72
2022/03/27 11:00:59;;;;;;;21.98;11.93;;;;;;;;;;5017450;28;20022;-73
2022/03/27 11:03:44;;;;;;;14.63;9.38;;;;;;;;;;5010317;28;20022;-72
2022/03/27 11:06:21;;;;;;;15.98;9.68;;;;;;;;;;5008674;28;20041;-71
2022/03/27 11:08:48;;;;;;;18.00;10.15;;;;;;;;;;5009262;28;20105;-74
2022/03/27 11:11:35;;;;;;;17.55;8.52;;;;;;;;;;5004452;28;20025;-73
2022/03/27 11:14:02;;;;;;;13.38;8.70;;;;;;;;;;5008933;28;20038;-72
2022/03/27 11:16:28;;;;;;;10.60;7.22;;;;;;;;;;5007526;28;20040;-73
2022/03/27 11:18:54;;;;;;;13.15;7.47;;;;;;;;;;5005873;28;20038;-73
2022/03/27 11:21:27;;;;;;;12.98;7.55;;;;;;;;;;5007816;28;20041;-72
2022/03/27 11:23:55;;;;;;;10.90;7.25;;;;;;;;;;5010666;28;20495;-73
2022/03/27 11:26:21;;;;;;;9.07;6.57;;;;;;;;;;5010969;28;20033;-74
2022/03/27 11:28:47;;;;;;;11.70;6.20;;;;;;;;;;5010337;28;20053;-75
2022/03/27 11:31:14;;;;;;;11.27;7.13;;;;;;;;;;5009903;28;20026;-73
2022/03/27 11:33:40;;;;;;;12.00;8.75;;;;;;;;;;5004078;28;20026;-74
2022/03/27 11:36:11;;;;;;;12.18;7.70;;;;;;;;;;5005299;28;20026;-74
2022/03/27 11:38:42;;;;;;;10.23;7.45;;;;;;;;;;5017679;28;20030;-71
2022/03/27 11:41:25;;;;;;;11.18;8.38;;;;;;;;;;5014336;28;20032;-72
2022/03/27 11:43:52;;;;;;;13.65;8.23;;;;;;;;;;5010676;28;20029;-72
2022/03/27 11:46:26;;;;;;;16.83;8.23;;;;;;;;;;5010349;28;20435;-74
2022/03/27 11:49:01;;;;;;;13.40;8.60;;;;;;;;;;5010377;28;20038;-73
2022/03/27 11:51:29;;;;;;;14.80;9.93;;;;;;;;;;5009898;28;20276;-74
2022/03/27 11:54:02;;;;;;;12.02;9.02;;;;;;;;;;5003442;28;20042;-74
2022/03/27 11:56:29;;;;;;;13.18;8.65;;;;;;;;;;5006651;28;20033;-74
2022/03/27 11:59:03;;;;;;;12.93;8.70;;;;;;;;;;5008930;28;20029;-72
2022/03/27 12:01:31;;;;;;;15.02;10.07;;;;;;;;;;5004694;28;20116;-73
2022/03/27 12:03:58;;;;;;;20.63;11.25;;;;;;;;;;5009999;28;20033;-73
2022/03/27 12:06:28;;;;;;;17.52;10.52;;;;;;;;;;5005740;28;20026;-74
2022/03/27 12:08:56;;;;;;;16.00;10.30;;;;;;;;;;5012155;28;20094;-73
2022/03/27 12:11:25;;;;;;;14.10;10.27;;;;;;;;;;5005648;28;20070;-74
2022/03/27 12:13:52;;;;;;;16.48;9.05;;;;;;;;;;5006339;28;21046;-73
2022/03/27 12:16:23;;;;;;;16.60;10.98;;;;;;;;;;5008145;28;20101;-73
2022/03/27 12:18:52;;;;;;;16.13;9.48;;;;;;;;;;5011959;28;20172;-73
2022/03/27 12:21:20;;;;;;;13.90;9.30;;;;;;;;;;5004627;28;20025;-72
2022/03/27 12:23:55;;;;;;;15.48;10.02;;;;;;;;;;5008312;28;20018;-72
2022/03/27 12:31:55;;;;;;;11.57;8.88;;;;;;;;;;4998925;28;20100;-73
2022/03/27 12:34:24;;;;;;;13.02;9.00;;;;;;;;;;5008035;28;20125;-73
2022/03/27 12:37:15;;;;;;;13.30;9.13;;;;;;;;;;5004709;28;20026;-73
2022/03/27 12:40:03;;;;;;;12.60;9.30;;;;;;;;;;5006910;28;20176;-74
2022/03/27 12:42:39;;;;;;;15.82;9.68;;;;;;;;;;5007455;28;20543;-73
2022/03/27 12:45:14;;;;;;;16.10;10.02;;;;;;;;;;5020021;28;20438;-74
2022/03/27 12:47:52;;;;;;;13.38;8.95;;;;;;;;;;5023137;28;20460;-74
2022/03/27 12:50:19;;;;;;;12.07;9.00;;;;;;;;;;5010639;28;20048;-73
2022/03/27 12:52:47;;;;;;;15.13;10.45;;;;;;;;;;5006363;28;20033;-72
2022/03/27 12:55:14;;;;;;;16.58;9.80;;;;;;;;;;5005018;28;20031;-73
2022/03/27 12:57:50;;;;;;;11.45;8.27;;;;;;;;;;5007430;28;20037;-73
2022/03/27 13:00:17;;;;;;;12.68;9.13;;;;;;;;;;5003383;28;20025;-73
2022/03/27 13:02:44;;;;;;;16.00;10.25;;;;;;;;;;5002833;28;20848;-72
2022/03/27 13:05:15;;;;;;;13.88;10.82;;;;;;;;;;4998437;28;20037;-74
2022/03/27 13:07:52;;;;;;;13.70;10.23;;;;;;;;;;5007426;28;20018;-75
2022/03/27 13:10:19;;;;;;;14.80;9.73;;;;;;;;;;5007531;28;20030;-73
2022/03/27 13:12:45;;;;;;;15.05;9.55;;;;;;;;;;4998238;28;20514;-76
2022/03/27 13:15:12;;;;;;;14.50;9.65;;;;;;;;;;5003746;28;20144;-75
2022/03/27 13:17:39;;;;;;;15.10;10.27;;;;;;;;;;5003906;28;20522;-75
2022/03/27 13:20:06;;;;;;;16.35;10.55;;;;;;;;;;5011998;28;20085;-76
2022/03/27 13:22:33;;;;;;;12.68;10.10;;;;;;;;;;4999882;28;20591;-75
2022/03/27 13:25:00;;;;;;;11.02;9.00;;;;;;;;;;4999404;28;20026;-75
2022/03/27 13:27:26;;;;;;;12.98;8.93;;;;;;;;;;5004581;28;20037;-74
2022/03/27 13:29:53;;;;;;;14.30;9.93;;;;;;;;;;5001882;28;20057;-74
2022/03/27 13:32:20;;;;;;;13.30;10.05;;;;;;;;;;4996317;28;20032;-74
2022/03/27 13:34:47;;;;;;;14.45;9.68;;;;;;;;;;5008759;28;20053;-74
2022/03/27 13:37:14;;;;;;;12.77;10.07;;;;;;;;;;5003137;28;20088;-73
2022/03/27 13:39:41;;;;;;;16.92;10.18;;;;;;;;;;5000882;28;21319;-74
2022/03/27 13:44:53;;;;;;;14.18;10.65;;;;;;;;;;5002555;28;20451;-73
2022/03/27 13:47:21;;;;;;;13.23;10.55;;;;;;;;;;5004183;28;20030;-72
2022/03/27 13:49:48;;;;;;;16.98;10.70;;;;;;;;;;5007299;28;20033;-73
2022/03/27 13:52:14;;;;;;;13.07;10.00;;;;;;;;;;5005204;28;20510;-72
2022/03/27 13:54:41;;;;;;;14.43;10.65;;;;;;;;;;5003136;28;20026;-74
2022/03/27 13:57:08;;;;;;;14.32;11.23;;;;;;;;;;5001067;28;20076;-73
2022/03/27 13:59:34;;;;;;;15.50;10.35;;;;;;;;;;4999777;28;20032;-73
2022/03/27 14:02:02;;;;;;;14.23;10.95;;;;;;;;;;5007416;28;20088;-73
2022/03/27 14:04:29;;;;;;;17.33;11.50;;;;;;;;;;5008182;28;20033;-72
2022/03/27 14:06:55;;;;;;;14.80;10.93;;;;;;;;;;5003182;28;20037;-73
2022/03/27 14:09:22;;;;;;;18.63;11.77;;;;;;;;;;5006582;28;20365;-72
2022/03/27 14:11:49;;;;;;;16.95;10.75;;;;;;;;;;5008198;28;20159;-73
2022/03/27 14:14:16;;;;;;;17.52;11.30;;;;;;;;;;5021423;28;20037;-73
2022/03/27 14:16:44;;;;;;;13.88;9.30;;;;;;;;;;5004026;28;20511;-73
2022/03/27 14:19:11;;;;;;;12.55;10.40;;;;;;;;;;5007033;28;20040;-73
2022/03/27 14:21:37;;;;;;;12.88;9.52;;;;;;;;;;5016608;28;20026;-74
2022/03/27 14:24:04;;;;;;;15.73;10.60;;;;;;;;;;5007222;28;20061;-73
2022/03/27 14:26:31;;;;;;;16.00;10.07;;;;;;;;;;5006501;28;20184;-74
2022/03/27 14:28:58;;;;;;;12.13;9.63;;;;;;;;;;5004786;28;20034;-76
2022/03/27 14:31:25;;;;;;;11.57;10.35;;;;;;;;;;5010718;28;20038;-76
2022/03/27 14:33:52;;;;;;;13.48;10.73;;;;;;;;;;5036957;28;20030;-76
2022/03/27 14:36:19;;;;;;;15.05;10.40;;;;;;;;;;5021214;28;20067;-76
2022/03/27 14:38:45;;;;;;;16.60;11.10;;;;;;;;;;5008738;28;20034;-75